• Join FlightAware (Why Join?)
  • Login
  • US Flag 
02:26PM EDT


 

Airport Tracker/Info


-or-


 

Live Flight TrackerFlight Track Log ✈ UAL6044 ✈ 12-Nov-2013 ✈ KMSY - KIAD

Flight Track Log - Related Links

Times and Time Zones

All times are in EST time to prevent confusion due to time zone crossing. See the UAL6044 flight status page for this flight to view local times or setup timezone preferences in your user account.

Time Position Orientation Groundspeed Altitude Reporting Facility
EST Latitude Longitude Course Direction KTS MPH feet Rate Location/Type
07:27PM 30.0133 -90.2428 20° North 147 169 900  Level Houston Center
07:27PM 30.0258 -90.2375 20° North 151 174 1,600 2,460 Climbing Houston Center
07:28PM 30.0536 -90.2272 18° North 169 194 3,100 2,160 Climbing Houston Center
07:29PM 30.1103 -90.2078 17° North 194 223 5,100 2,280 Climbing Houston Center
07:30PM 30.1494 -90.1406 56° Northeast 242 278 7,800 2,340 Climbing Houston Center
07:31PM 30.1906 -90.0658 58° Northeast 267 307 10,000 1,560 Climbing Houston Center
07:32PM 30.2375 -89.9828 57° Northeast 296 341 11,100 1,320 Climbing Houston Center
07:33PM 30.2928 -89.8869 56° Northeast 343 395 12,800 1,680 Climbing Houston Center
07:34PM 30.3656 -89.7953 47° Northeast 396 456 14,600 1,560 Climbing Houston Center
07:35PM 30.4347 -89.7003 50° Northeast 378 435 16,100 1,440 Climbing Houston Center
07:36PM 30.5075 -89.6092 47° Northeast 381 438 17,600 1,200 Climbing Houston Center
07:37PM 30.5831 -89.5139 47° Northeast 395 455 18,600 1,260 Climbing Houston Center
07:38PM 30.6761 -89.3978 47° Northeast 408 470 20,300 1,560 Climbing Houston Center
07:39PM 30.7472 -89.2883 53° Northeast 425 489 21,800 1,440 Climbing Houston Center
07:40PM 30.8067 -89.1658 61° Northeast 433 498 23,300 1,440 Climbing Houston Center
07:41PM 30.8639 -89.0425 62° Northeast 434 499 24,800 1,440 Climbing Houston Center
07:42PM 30.8681 -88.9008 88° East 449 517 26,300 1,380 Climbing Houston Center
07:43PM 30.8778 -88.7572 85° East 447 514 27,700 1,260 Climbing Houston Center
07:44PM 30.8869 -88.6064 86° East 450 518 29,000 1,260 Climbing Houston Center
07:45PM 30.9275 -88.4394 74° East 462 532 30,400 1,020 Climbing Houston Center
07:46PM 31.0042 -88.3233 52° Northeast 452 520 31,200 720 Climbing Houston Center
07:47PM 31.0822 -88.1981 54° Northeast 466 536 32,000 780 Climbing Houston Center
07:48PM 31.1622 -88.0706 54° Northeast 481 554 32,900 840 Climbing Houston Center
07:49PM 31.2469 -87.9336 54° Northeast 491 565 33,800 720 Climbing Houston Center
07:50PM 31.3275 -87.8006 55° Northeast 500 575 34,500 540 Climbing Houston Center
07:51PM 31.4119 -87.6672 53° Northeast 505 581 35,000 240 Climbing Houston Center
07:52PM 31.4983 -87.5272 54° Northeast 524 603 35,000  Level Houston Center
07:53PM 31.5889 -87.3806 54° Northeast 547 629 35,000  Level Houston Center
07:54PM 31.6956 -87.1969 56° Northeast 567 652 35,000  Level Houston Center
07:55PM 31.7883 -87.0442 54° Northeast 574 661 35,000  Level Houston Center
07:56PM 31.8814 -86.8883 55° Northeast 581 669 35,000  Level Houston Center
07:57PM 31.9733 -86.7336 55° Northeast 579 666 35,000  Level Houston Center
07:59PM 32.0969 -86.5444 52° Northeast 574 661 35,000  Level Atlanta Center
08:00PM 32.1919 -86.3753 56° Northeast 569 655 35,000  Level Atlanta Center
08:01PM 32.2889 -86.2206 53° Northeast 575 662 35,000  Level Atlanta Center
08:02PM 32.3872 -86.0731 52° Northeast 570 656 35,000  Level Atlanta Center
08:03PM 32.4858 -85.9250 52° Northeast 577 664 35,000  Level Atlanta Center
08:04PM 32.5881 -85.7769 51° Northeast 577 664 35,000  Level Atlanta Center
08:05PM 32.6861 -85.6283 52° Northeast 577 664 35,000  Level Atlanta Center
08:06PM 32.7753 -85.4964 51° Northeast 577 664 35,000  Level Atlanta Center
08:07PM 32.8708 -85.3497 52° Northeast 572 658 35,000  Level Atlanta Center
08:08PM 32.9728 -85.1978 51° Northeast 572 658 35,000  Level Atlanta Center
08:09PM 33.0700 -85.0553 51° Northeast 572 658 35,000  Level Atlanta Center
08:10PM 33.1692 -84.9050 52° Northeast 572 658 35,000  Level Atlanta Center
08:11PM 33.2661 -84.7544 52° Northeast 572 658 35,000  Level Atlanta Center
08:12PM 33.3631 -84.6008 53° Northeast 577 664 35,000  Level Atlanta Center
08:13PM 33.4617 -84.4522 51° Northeast 577 664 35,000  Level Atlanta Center
08:14PM 33.5561 -84.3006 53° Northeast 577 664 35,000  Level Atlanta Center
08:15PM 33.6544 -84.1486 52° Northeast 577 664 35,000  Level Atlanta Center
08:16PM 33.7503 -83.9989 52° Northeast 577 664 35,000  Level Atlanta Center
08:17PM 33.8464 -83.8461 53° Northeast 577 664 35,000  Level Atlanta Center
08:18PM 33.9419 -83.6958 53° Northeast 572 658 35,000  Level Atlanta Center
08:19PM 34.0394 -83.5425 52° Northeast 577 664 35,000  Level Atlanta Center
08:20PM 34.1431 -83.3761 53° Northeast 572 658 35,000  Level Atlanta Center
08:21PM 34.2403 -83.2197 53° Northeast 578 665 35,000  Level Atlanta Center
08:22PM 34.3353 -83.0678 53° Northeast 572 658 35,000  Level Atlanta Center
08:23PM 34.4278 -82.9131 54° Northeast 577 664 35,000  Level Atlanta Center
08:24PM 34.5264 -82.7581 52° Northeast 577 664 35,000  Level Atlanta Center
08:25PM 34.6164 -82.6000 55° Northeast 572 658 35,000  Level Atlanta Center
08:26PM 34.7086 -82.4672 50° Northeast 572 658 35,000  Level Atlanta Center
08:27PM 34.8025 -82.3086 54° Northeast 579 666 35,000  Level Atlanta Center
08:28PM 34.8983 -82.1494 54° Northeast 579 666 35,000  Level Atlanta Center
08:29PM 34.9981 -81.9900 53° Northeast 579 666 35,000  Level Atlanta Center
08:30PM 35.0892 -81.8253 56° Northeast 579 666 35,000  Level Atlanta Center
08:31PM 35.1756 -81.6578 58° Northeast 579 666 35,000  Level Atlanta Center
08:32PM 35.2642 -81.4900 57° Northeast 579 666 35,000  Level Atlanta Center
08:33PM 35.3503 -81.3219 58° Northeast 579 666 35,000  Level Atlanta Center
08:34PM 35.4400 -81.1481 58° Northeast 589 678 35,000  Level Atlanta Center
08:35PM 35.5278 -80.9792 57° Northeast 594 684 35,000  Level Atlanta Center
08:36PM 35.6153 -80.8097 58° Northeast 594 684 35,000 -540 Level Atlanta Center
08:37PM 35.7125 -80.6244 57° Northeast 594 684 34,000 -1,020 Descending Atlanta Center
08:38PM 35.7992 -80.4492 59° Northeast 594 684 33,000 -300 Descending Atlanta Center
08:40PM 36.0061 -80.0547 57° Northeast 590 679 33,000  Level Washington Center
08:41PM 36.0978 -79.8875 56° Northeast 584 672 33,000  Level Washington Center
08:42PM 36.1844 -79.7353 55° Northeast 590 679 33,000  Level Washington Center
08:43PM 36.2847 -79.5500 56° Northeast 590 679 33,000 -360 Level Washington Center
08:44PM 36.3731 -79.4022 53° Northeast 584 672 32,300 -1,140 Descending Washington Center
08:45PM 36.4658 -79.2311 56° Northeast 589 678 30,800 -1,500 Descending Washington Center
08:46PM 36.5606 -79.0647 55° Northeast 584 672 29,300 -2,220 Descending Washington Center
08:47PM 36.6550 -78.8981 55° Northeast 584 672 26,500 -2,220 Descending Washington Center
08:48PM 36.7494 -78.7181 57° Northeast 581 669 25,000 -780 Descending Washington Center
08:49PM 36.8369 -78.5608 55° Northeast 555 639 25,000  Level Washington Center
08:50PM 36.9200 -78.4056 56° Northeast 543 625 25,000 -240 Level Washington Center
08:51PM 37.0067 -78.2708 51° Northeast 543 625 24,600 -1,500 Descending Washington Center
08:52PM 37.1236 -78.1603 37° Northeast 524 603 22,100 -1,320 Descending Washington Center
08:53PM 37.2489 -78.0575 33° Northeast 505 581 22,000 -60 Descending Washington Center
08:54PM 37.3678 -77.9619 33° Northeast 505 581 22,000  Level Washington Center
08:55PM 37.4844 -77.8636 34° Northeast 505 581 22,000  Level Washington Center
08:56PM 37.6089 -77.7808 28° Northeast 505 581 22,000 -1,080 Level Washington Center
08:57PM 37.7250 -77.7106 26° Northeast 480 552 19,900 -2,040 Descending Washington Center
08:58PM 37.8344 -77.6481 24° Northeast 448 516 17,900 -2,520 Descending Washington Center
08:59PM 37.9378 -77.5875 25° Northeast 420 483 15,000 -2,520 Descending Washington Center
09:00PM 38.0136 -77.5422 25° Northeast 397 457 13,000 -2,340 Descending Washington Center
09:01PM 38.1103 -77.4892 23° Northeast 359 413 10,400 -1,500 Descending Washington Center
09:02PM 38.1819 -77.4486 24° Northeast 314 361 10,000 -300 Descending Washington Center
09:03PM 38.2408 -77.4133 25° Northeast 263 303 9,800 -780 Descending Washington Center
09:04PM 38.2953 -77.3906 18° North 218 251 8,500 -1,140 Descending Washington Center
09:05PM 38.3469 -77.4183 337° Northwest 185 213 7,600 -1,020 Descending Washington Center
09:06PM 38.3967 -77.4489 334° Northwest 185 213 6,500 -1,380 Descending Washington Center
09:07PM 38.4444 -77.4472 North 180 207 4,900 -1,200 Descending Washington Center
09:08PM 38.4947 -77.4458 North 180 207 4,100 -420 Descending Washington Center
09:09PM 38.5383 -77.4444 North 169 194 4,100 -60 Level Washington Center
09:10PM 38.5758 -77.4453 359° North 149 171 4,000 -420 Descending Washington Center
09:12PM 38.6500 -77.4333 North 138 159 3,000 -360 Descending Potomac TRACON
09:13PM 38.6833 -77.4333 360° North 145 167 3,000  Level Potomac TRACON
09:14PM 38.7167 -77.4333 360° North 143 165 3,000  Level Potomac TRACON
09:15PM 38.7667 -77.4333 360° North 141 162 3,000 -60 Level Potomac TRACON
09:16PM 38.8000 -77.4333 360° North 142 163 2,900 -480 Descending Potomac TRACON
09:17PM 38.8333 -77.4333 360° North 134 154 2,100 -720 Descending Potomac TRACON
09:18PM 38.8667 -77.4333 360° North 110 127 1,500 -660 Descending Potomac TRACON
09:19PM 38.9000 -77.4333 360° North 114 131 800 -720 Descending Potomac TRACON